createdAt,value
2022-08-09T00:01:42.998Z,3.55
2022-08-09T00:04:34.827Z,4.15
2022-08-09T00:07:10.567Z,3.70
2022-08-09T00:09:39.869Z,3.65
2022-08-09T00:12:08.311Z,3.60
2022-08-09T00:14:38.487Z,3.65
2022-08-09T00:17:07.164Z,3.63
2022-08-09T00:19:35.070Z,3.58
2022-08-09T00:22:04.305Z,3.38
2022-08-09T00:24:32.736Z,3.25
2022-08-09T00:27:01.033Z,3.70
2022-08-09T00:29:39.494Z,3.85
2022-08-09T00:32:26.819Z,3.65
2022-08-09T00:34:55.604Z,3.60
2022-08-09T00:37:23.947Z,3.92
2022-08-09T00:40:12.635Z,3.90
2022-08-09T00:44:25.872Z,3.53
2022-08-09T00:45:28.461Z,3.50
2022-08-09T00:47:56.152Z,3.92
2022-08-09T00:50:25.477Z,3.30
2022-08-09T00:52:55.599Z,3.97
2022-08-09T00:56:03.034Z,4.00
2022-08-09T00:58:14.644Z,4.10
2022-08-09T01:00:54.399Z,3.53
2022-08-09T01:03:48.439Z,4.20
2022-08-09T01:06:35.416Z,3.20
2022-08-09T01:09:37.350Z,3.88
2022-08-09T01:12:29.565Z,3.25
2022-08-09T01:15:10.034Z,3.47
2022-08-09T01:18:14.235Z,3.42
2022-08-09T01:21:00.205Z,3.75
2022-08-09T01:24:02.975Z,3.53
2022-08-09T01:26:46.162Z,3.75
2022-08-09T01:29:17.198Z,3.45
2022-08-09T01:32:29.481Z,3.78
2022-08-09T01:34:37.768Z,3.30
2022-08-09T01:37:08.913Z,3.72
2022-08-09T01:39:39.694Z,3.22
2022-08-09T01:42:11.253Z,3.92
2022-08-09T01:44:41.353Z,3.22
2022-08-09T01:47:11.632Z,3.60
2022-08-09T01:49:40.380Z,3.42
2022-08-09T01:52:20.059Z,3.22
2022-08-09T01:54:52.538Z,3.50
2022-08-09T01:57:27.408Z,3.10
2022-08-09T02:00:19.167Z,3.53
2022-08-09T02:02:51.719Z,3.47
2022-08-09T02:05:37.694Z,3.10
2022-08-09T02:08:38.900Z,3.08
2022-08-09T02:11:03.454Z,3.35
2022-08-09T02:14:06.658Z,3.50
2022-08-09T02:17:00.043Z,3.75
2022-08-09T02:19:38.731Z,3.95
2022-08-09T02:22:39.147Z,3.53
2022-08-09T02:25:15.402Z,3.63
2022-08-09T02:27:57.638Z,4.13
2022-08-09T02:30:32.404Z,3.40
2022-08-09T02:33:03.203Z,3.00
2022-08-09T02:36:01.944Z,3.53
2022-08-09T02:38:31.410Z,3.63
2022-08-09T02:41:06.480Z,3.38
2022-08-09T02:43:53.719Z,3.35
2022-08-09T02:46:27.679Z,3.40
2022-08-09T02:49:01.178Z,3.72
2022-08-09T02:51:40.074Z,3.10
2022-08-09T02:54:12.471Z,3.08
2022-08-09T02:56:48.715Z,3.03
2022-08-09T02:59:26.203Z,3.20
2022-08-09T03:02:11.884Z,3.10
2022-08-09T03:04:42.178Z,2.95
2022-08-09T03:07:14.380Z,3.08
2022-08-09T03:09:56.318Z,2.80
2022-08-09T03:12:26.242Z,2.97
2022-08-09T03:14:56.469Z,2.80
2022-08-09T03:17:26.607Z,2.97
2022-08-09T03:20:05.307Z,3.20
2022-08-09T03:22:42.270Z,3.20
2022-08-09T03:25:27.012Z,2.97
2022-08-09T03:28:03.753Z,3.15
2022-08-09T03:30:34.066Z,3.00
2022-08-09T03:33:16.989Z,3.03
2022-08-09T03:36:16.413Z,2.60
2022-08-09T03:38:41.966Z,2.92
2022-08-09T03:41:16.539Z,2.80
2022-08-09T03:44:03.384Z,2.97
2022-08-09T03:46:36.673Z,3.03
2022-08-09T03:49:08.979Z,3.00
2022-08-09T03:51:43.980Z,3.00
2022-08-09T03:54:34.860Z,3.13
2022-08-09T03:57:17.987Z,3.33
2022-08-09T03:59:56.092Z,3.00
2022-08-09T04:02:30.987Z,2.67
2022-08-09T04:05:06.659Z,3.45
2022-08-09T04:07:52.476Z,3.15
2022-08-09T04:10:28.946Z,3.00
2022-08-09T04:13:00.677Z,3.63
2022-08-09T04:15:39.197Z,3.28
2022-08-09T04:18:19.245Z,2.83
2022-08-09T04:20:49.925Z,3.10
2022-08-09T04:23:24.346Z,3.08
2022-08-09T04:25:54.236Z,2.78
2022-08-09T04:28:34.146Z,2.95
2022-08-09T04:31:09.499Z,2.67
2022-08-09T04:33:52.890Z,3.03
2022-08-09T04:36:27.587Z,3.08
2022-08-09T04:38:57.504Z,2.65
2022-08-09T04:41:32.920Z,2.90
2022-08-09T04:44:05.749Z,3.78
2022-08-09T04:46:56.656Z,3.63
2022-08-09T04:49:40.508Z,3.33
2022-08-09T04:52:18.322Z,3.40
2022-08-09T04:54:52.205Z,3.30
2022-08-09T04:57:21.518Z,3.20
2022-08-09T04:59:55.855Z,2.53
2022-08-09T05:02:27.276Z,3.20
2022-08-09T05:04:58.359Z,3.17
2022-08-09T05:07:37.791Z,2.88
2022-08-09T05:10:06.385Z,2.33
2022-08-09T05:12:34.594Z,3.03
2022-08-09T05:15:11.879Z,3.00
2022-08-09T05:18:38.330Z,3.08
2022-08-09T05:20:39.652Z,3.38
2022-08-09T05:23:56.953Z,3.10
2022-08-09T05:25:55.238Z,3.25
2022-08-09T05:28:24.740Z,2.63
2022-08-09T05:30:52.448Z,3.17
2022-08-09T05:33:26.421Z,2.92
2022-08-09T05:36:01.834Z,3.45
2022-08-09T05:38:29.793Z,2.97
2022-08-09T05:40:59.307Z,3.38
2022-08-09T05:43:31.756Z,2.50
2022-08-09T05:46:00.124Z,3.00
2022-08-09T05:48:33.209Z,3.40
2022-08-09T05:53:57.019Z,3.00
2022-08-09T05:56:27.305Z,3.35
2022-08-09T05:58:58.781Z,2.78
2022-08-09T06:01:33.539Z,3.00
2022-08-09T06:04:05.786Z,2.83
2022-08-09T06:06:33.938Z,2.92
2022-08-09T06:09:01.766Z,2.63
2022-08-09T06:11:40.975Z,2.70
2022-08-09T06:14:22.108Z,2.72
2022-08-09T06:16:52.252Z,3.13
2022-08-09T06:19:20.836Z,2.50
2022-08-09T06:21:51.506Z,2.63
2022-08-09T06:24:27.080Z,2.35
2022-08-09T06:26:55.008Z,2.63
2022-08-09T06:29:23.294Z,2.33
2022-08-09T06:32:08.940Z,2.60
2022-08-09T06:34:40.565Z,2.53
2022-08-09T06:37:08.932Z,2.67
2022-08-09T06:39:58.219Z,2.50
2022-08-09T06:42:30.460Z,2.67
2022-08-09T06:45:00.248Z,2.45
2022-08-09T06:47:30.289Z,2.70
2022-08-09T06:50:14.313Z,2.15
2022-08-09T06:52:48.661Z,2.05
2022-08-09T06:55:23.233Z,2.55
2022-08-09T06:58:02.939Z,2.50
2022-08-09T07:00:53.059Z,2.33
2022-08-09T07:03:27.652Z,2.42
2022-08-09T07:06:04.412Z,2.63
2022-08-09T07:08:34.442Z,2.08
2022-08-09T07:11:04.321Z,2.40
2022-08-09T07:13:45.085Z,2.40
2022-08-09T07:16:41.868Z,1.92
2022-08-09T07:19:15.131Z,1.95
2022-08-09T07:21:55.909Z,2.10
2022-08-09T07:24:31.876Z,2.30
2022-08-09T07:27:01.462Z,2.25
2022-08-09T07:29:30.844Z,1.75
2022-08-09T07:32:07.322Z,2.20
2022-08-09T07:34:35.627Z,2.40
2022-08-09T07:37:04.144Z,2.40
2022-08-09T07:39:40.779Z,2.00
2022-08-09T07:42:09.627Z,2.10
2022-08-09T07:44:51.010Z,2.25
2022-08-09T07:47:23.646Z,2.00
2022-08-09T07:50:08.060Z,2.25
2022-08-09T07:52:38.855Z,2.10
2022-08-09T07:55:09.500Z,2.30
2022-08-09T07:57:47.115Z,2.10
2022-08-09T08:00:36.257Z,2.45
2022-08-09T08:03:09.763Z,2.15
2022-08-09T08:05:54.394Z,2.60
2022-08-09T08:09:02.523Z,2.28
2022-08-09T08:12:08.803Z,2.40
2022-08-09T08:14:04.752Z,2.53
2022-08-09T08:16:34.601Z,2.60
2022-08-09T08:19:03.123Z,2.10
2022-08-09T08:21:32.480Z,2.20
2022-08-09T08:24:01.405Z,2.90
2022-08-09T08:26:41.973Z,2.50
2022-08-09T08:29:28.638Z,2.80
2022-08-09T08:32:07.360Z,2.63
2022-08-09T08:34:40.299Z,2.50
2022-08-09T08:37:15.560Z,2.75
2022-08-09T08:39:47.077Z,2.60
2022-08-09T08:42:16.582Z,2.58
2022-08-09T08:44:44.933Z,2.53
2022-08-09T08:47:19.823Z,2.13
2022-08-09T08:49:49.499Z,2.15
2022-08-09T08:52:52.653Z,2.67
2022-08-09T08:55:08.159Z,2.75
2022-08-09T08:57:37.397Z,3.08
2022-08-09T09:00:20.381Z,2.40
2022-08-09T09:03:04.492Z,2.70
2022-08-09T09:05:59.204Z,2.63
2022-08-09T09:08:40.445Z,2.90
2022-08-09T09:11:17.908Z,2.40
2022-08-09T09:13:56.397Z,2.60
2022-08-09T09:16:35.836Z,2.42
2022-08-09T09:22:11.302Z,2.45
2022-08-09T09:24:45.603Z,2.70
2022-08-09T09:27:22.083Z,2.50
2022-08-09T09:30:26.134Z,2.80
2022-08-09T09:33:15.597Z,2.90
2022-08-09T09:36:11.619Z,2.45
2022-08-09T09:41:22.842Z,2.80
2022-08-09T09:44:10.791Z,2.45
2022-08-09T09:46:42.823Z,2.70
2022-08-09T09:49:13.336Z,2.67
2022-08-09T09:51:41.952Z,2.50
2022-08-09T09:54:20.639Z,2.45
2022-08-09T09:56:53.447Z,2.78
2022-08-09T09:59:38.106Z,2.47
2022-08-09T10:02:06.648Z,2.70
2022-08-09T10:04:35.691Z,3.03
2022-08-09T10:07:09.857Z,2.60
2022-08-09T10:09:49.115Z,2.47
2022-08-09T10:12:43.787Z,2.58
2022-08-09T10:15:17.709Z,2.28
2022-08-09T10:18:12.535Z,2.50
2022-08-09T10:20:45.159Z,2.20
2022-08-09T10:26:04.496Z,2.67
2022-08-09T10:28:37.340Z,2.72
2022-08-09T10:34:10.674Z,2.55
2022-08-09T10:36:43.321Z,2.63
2022-08-09T10:39:16.000Z,2.40
2022-08-09T10:41:47.682Z,2.42
2022-08-09T10:44:24.804Z,2.70
2022-08-09T10:48:26.291Z,2.40
2022-08-09T10:50:27.092Z,2.83
2022-08-09T10:53:20.128Z,2.63
2022-08-09T10:55:58.749Z,2.95
2022-08-09T10:58:54.039Z,2.63
2022-08-09T11:03:11.854Z,2.75
2022-08-09T11:04:30.506Z,2.58
2022-08-09T11:07:01.023Z,2.58
2022-08-09T11:09:38.311Z,3.22
2022-08-09T11:12:15.143Z,2.80
2022-08-09T11:14:57.219Z,2.95
2022-08-09T11:17:25.191Z,2.95
2022-08-09T11:20:10.480Z,3.00
2022-08-09T11:22:45.484Z,2.80
2022-08-09T11:25:25.949Z,2.53
2022-08-09T11:28:34.546Z,2.60
2022-08-09T11:31:49.043Z,2.85
2022-08-09T11:34:33.031Z,2.95
2022-08-09T11:37:07.450Z,2.50
2022-08-09T11:42:48.670Z,2.75
2022-08-09T11:45:42.452Z,2.72
2022-08-09T11:48:25.982Z,3.03
2022-08-09T11:52:48.909Z,2.70
2022-08-09T11:53:59.760Z,3.10
2022-08-09T11:56:34.522Z,2.90
2022-08-09T11:59:11.707Z,2.90
2022-08-09T12:02:15.926Z,2.88
2022-08-09T12:04:37.406Z,2.80
2022-08-09T12:07:07.912Z,2.42
2022-08-09T12:09:36.689Z,2.60
2022-08-09T12:12:13.232Z,2.60
2022-08-09T12:15:08.398Z,2.83
2022-08-09T12:17:44.470Z,2.88
2022-08-09T12:20:23.416Z,3.00
2022-08-09T12:22:57.876Z,3.08
2022-08-09T12:25:35.894Z,3.00
2022-08-09T12:29:14.886Z,2.97
2022-08-09T12:30:58.641Z,3.15
2022-08-09T12:33:35.572Z,2.72
2022-08-09T12:36:27.608Z,3.00
2022-08-09T12:39:01.007Z,2.60
2022-08-09T12:41:38.345Z,3.63
2022-08-09T12:44:10.231Z,3.05
2022-08-09T12:46:48.990Z,2.75
2022-08-09T12:49:20.984Z,2.90
2022-08-09T12:52:00.840Z,2.95
2022-08-09T12:56:13.099Z,3.08
2022-08-09T12:57:46.926Z,3.00
2022-08-09T13:00:19.218Z,2.90
2022-08-09T13:02:58.591Z,2.97
2022-08-09T13:05:50.753Z,2.55
2022-08-09T13:08:21.177Z,2.70
2022-08-09T13:11:13.596Z,2.60
2022-08-09T13:14:41.399Z,2.80
2022-08-09T13:16:46.229Z,2.88
2022-08-09T13:20:09.562Z,2.88
2022-08-09T13:22:35.866Z,3.00
2022-08-09T13:25:14.226Z,2.67
2022-08-09T13:27:48.654Z,2.50
2022-08-09T13:30:50.516Z,3.00
2022-08-09T13:33:23.601Z,2.80
2022-08-09T13:36:39.505Z,2.92
2022-08-09T13:38:57.298Z,3.22
2022-08-09T13:41:58.090Z,2.80
2022-08-09T13:44:16.771Z,2.78
2022-08-09T13:47:29.478Z,3.10
2022-08-09T13:49:38.211Z,2.88
2022-08-09T13:52:09.039Z,2.83
2022-08-09T13:54:41.767Z,2.72
2022-08-09T13:57:36.354Z,2.70
2022-08-09T14:00:19.989Z,2.80
2022-08-09T14:03:03.441Z,2.88
2022-08-09T14:05:58.645Z,2.30
2022-08-09T14:08:28.271Z,2.92
2022-08-09T14:10:56.800Z,2.75
2022-08-09T14:14:16.278Z,3.10
2022-08-09T14:16:16.413Z,2.60
2022-08-09T14:18:49.446Z,3.05
2022-08-09T14:21:22.322Z,2.90
2022-08-09T14:23:54.744Z,3.30
2022-08-09T14:26:31.696Z,2.83
2022-08-09T14:29:08.276Z,2.78
2022-08-09T14:31:54.077Z,2.97
2022-08-09T14:34:27.534Z,2.92
2022-08-09T14:37:06.519Z,2.95
2022-08-09T14:39:45.979Z,2.83
2022-08-09T14:42:30.976Z,2.42
2022-08-09T14:46:39.056Z,2.53
2022-08-09T14:47:58.370Z,2.88
2022-08-09T14:50:32.979Z,2.47
2022-08-09T14:53:11.736Z,2.50
2022-08-09T14:55:42.084Z,2.63
2022-08-09T14:58:10.703Z,2.50
2022-08-09T15:00:42.400Z,2.67
2022-08-09T15:03:20.151Z,2.40
2022-08-09T15:05:52.593Z,2.60
2022-08-09T15:08:26.343Z,2.70
2022-08-09T15:11:00.269Z,2.58
2022-08-09T15:13:56.773Z,2.45
2022-08-09T15:16:18.156Z,2.70
2022-08-09T15:18:48.348Z,2.90
2022-08-09T15:21:56.427Z,2.55
2022-08-09T15:24:12.771Z,2.92
2022-08-09T15:26:46.571Z,3.28
2022-08-09T15:30:58.429Z,3.10
2022-08-09T15:32:03.209Z,2.45
2022-08-09T15:34:34.374Z,2.65
2022-08-09T15:37:24.200Z,2.67
2022-08-09T15:40:11.536Z,2.40
2022-08-09T15:42:41.099Z,2.45
2022-08-09T15:45:12.800Z,2.83
2022-08-09T15:47:52.823Z,2.70
2022-08-09T15:50:29.197Z,2.50
2022-08-09T15:53:06.012Z,2.40
2022-08-09T15:56:04.229Z,2.85
2022-08-09T15:58:27.194Z,2.65
2022-08-09T16:00:56.481Z,2.50
2022-08-09T16:03:29.516Z,2.80
2022-08-09T16:06:07.847Z,2.47
2022-08-09T16:08:56.159Z,2.58
2022-08-09T16:11:24.029Z,2.85
2022-08-09T16:14:04.272Z,2.70
2022-08-09T16:16:38.123Z,2.35
2022-08-09T16:19:13.408Z,2.55
2022-08-09T16:21:42.963Z,2.30
2022-08-09T16:24:30.280Z,6.35
2022-08-09T16:27:05.046Z,2.80
2022-08-09T16:29:37.423Z,2.20
2022-08-09T16:32:19.794Z,2.58
2022-08-09T16:34:57.861Z,2.20
2022-08-09T16:37:55.156Z,2.83
2022-08-09T16:40:30.056Z,2.33
2022-08-09T16:43:04.836Z,2.38
2022-08-09T16:45:33.166Z,2.13
2022-08-09T16:48:43.283Z,1.90
2022-08-09T16:50:49.761Z,2.35
2022-08-09T16:53:34.077Z,2.22
2022-08-09T16:56:09.151Z,2.22
2022-08-09T16:58:49.798Z,2.10
2022-08-09T17:01:24.675Z,2.55
2022-08-09T17:03:53.636Z,2.38
2022-08-09T17:06:29.270Z,2.03
2022-08-09T17:09:17.625Z,2.58
2022-08-09T17:11:52.790Z,2.30
2022-08-09T17:14:27.346Z,2.10
2022-08-09T17:17:02.268Z,2.30
2022-08-09T17:19:47.687Z,2.08
2022-08-09T17:22:33.791Z,2.20
2022-08-09T17:25:10.173Z,2.03
2022-08-09T17:27:48.819Z,2.50
2022-08-09T17:30:17.649Z,2.40
2022-08-09T17:32:50.986Z,2.38
2022-08-09T17:35:19.710Z,2.58
2022-08-09T17:38:02.722Z,2.63
2022-08-09T17:40:38.657Z,2.13
2022-08-09T17:43:32.805Z,2.67
2022-08-09T17:46:03.996Z,3.00
2022-08-09T17:48:38.741Z,2.85
2022-08-09T17:53:54.629Z,2.53
2022-08-09T17:56:35.444Z,2.58
2022-08-09T17:59:11.364Z,2.60
2022-08-09T18:02:08.053Z,2.60
2022-08-09T18:04:29.140Z,2.85
2022-08-09T18:06:57.437Z,3.00
2022-08-09T18:09:40.191Z,3.03
2022-08-09T18:12:17.759Z,2.75
2022-08-09T18:14:53.795Z,2.58
2022-08-09T18:18:02.444Z,2.50
2022-08-09T18:20:59.056Z,2.38
2022-08-09T18:23:07.368Z,3.05
2022-08-09T18:25:51.296Z,2.70
2022-08-09T18:30:41.444Z,3.00
2022-08-09T18:31:11.470Z,2.63
2022-08-09T18:33:40.316Z,2.97
2022-08-09T18:36:14.311Z,3.30
2022-08-09T18:39:00.653Z,2.83
2022-08-09T18:41:34.247Z,2.90
2022-08-09T18:44:13.197Z,3.17
2022-08-09T18:46:47.134Z,2.80
2022-08-09T18:49:19.732Z,2.63
2022-08-09T18:51:55.223Z,2.60
2022-08-09T18:54:28.635Z,2.20
2022-08-09T18:57:06.102Z,2.83
2022-08-09T18:59:51.201Z,2.60
2022-08-09T19:02:24.030Z,2.40
2022-08-09T19:05:14.577Z,3.42
2022-08-09T19:08:04.103Z,2.33
2022-08-09T19:10:39.262Z,2.30
2022-08-09T19:13:22.311Z,2.95
2022-08-09T19:15:59.328Z,2.67
2022-08-09T19:18:33.232Z,2.80
2022-08-09T19:21:05.403Z,2.67
2022-08-09T19:24:32.843Z,2.70
2022-08-09T19:26:29.485Z,3.00
2022-08-09T19:29:02.442Z,2.60
2022-08-09T19:31:43.969Z,2.83
2022-08-09T19:34:21.236Z,2.92
2022-08-09T19:36:51.650Z,2.72
2022-08-09T19:39:43.083Z,2.83
2022-08-09T19:42:08.485Z,2.90
2022-08-09T19:44:36.989Z,3.03
2022-08-09T19:47:05.137Z,3.30
2022-08-09T19:50:06.716Z,3.30
2022-08-09T19:52:21.607Z,3.28
2022-08-09T19:54:49.566Z,3.28
2022-08-09T19:57:17.400Z,2.92
2022-08-09T20:00:00.001Z,3.42
2022-08-09T20:04:11.490Z,3.35
2022-08-09T20:05:25.992Z,2.72
2022-08-09T20:07:58.718Z,2.83
2022-08-09T20:10:34.350Z,3.10
2022-08-09T20:13:06.403Z,3.15
2022-08-09T20:16:36.709Z,2.80
2022-08-09T20:18:27.609Z,3.20
2022-08-09T20:20:57.003Z,2.65
2022-08-09T20:23:38.558Z,2.95
2022-08-09T20:26:10.080Z,3.22
2022-08-09T20:28:48.433Z,3.08
2022-08-09T20:31:18.702Z,3.38
2022-08-09T20:33:46.958Z,3.17
2022-08-09T20:36:27.148Z,3.40
2022-08-09T20:39:28.971Z,3.30
2022-08-09T20:41:44.186Z,3.17
2022-08-09T20:44:15.050Z,3.05
2022-08-09T20:46:44.734Z,3.10
2022-08-09T20:49:15.835Z,2.90
2022-08-09T20:51:50.434Z,3.00
2022-08-09T20:54:18.561Z,3.13
2022-08-09T20:56:49.874Z,2.90
2022-08-09T20:59:50.051Z,2.60
2022-08-09T21:02:17.584Z,2.90
2022-08-09T21:05:52.813Z,3.08
2022-08-09T21:07:40.173Z,3.25
2022-08-09T21:10:12.175Z,3.22
2022-08-09T21:12:40.225Z,3.17
2022-08-09T21:15:12.360Z,3.15
2022-08-09T21:18:23.352Z,2.95
2022-08-09T21:20:29.845Z,3.25
2022-08-09T21:22:59.657Z,3.03
2022-08-09T21:25:56.085Z,3.28
2022-08-09T21:28:33.658Z,3.30
2022-08-09T21:31:17.532Z,3.08
2022-08-09T21:33:54.481Z,3.10
2022-08-09T21:36:29.123Z,2.45
2022-08-09T21:38:59.428Z,3.10
2022-08-09T21:42:04.554Z,2.95
2022-08-09T21:44:32.827Z,3.33
2022-08-09T21:47:08.942Z,3.30
2022-08-09T21:49:39.826Z,3.20
2022-08-09T21:52:14.942Z,3.67
2022-08-09T21:54:53.701Z,3.00
2022-08-09T21:57:39.049Z,3.47
2022-08-09T22:00:32.622Z,3.30
2022-08-09T22:03:12.590Z,2.85
2022-08-09T22:05:51.251Z,2.70
2022-08-09T22:08:19.497Z,2.78
2022-08-09T22:11:05.175Z,2.92
2022-08-09T22:13:42.362Z,3.30
2022-08-09T22:16:11.964Z,3.03
2022-08-09T22:18:52.847Z,2.80
2022-08-09T22:21:27.445Z,3.10
2022-08-09T22:24:21.111Z,3.03
2022-08-09T22:26:53.316Z,2.78
2022-08-09T22:29:28.785Z,3.10
2022-08-09T22:32:00.342Z,3.50
2022-08-09T22:34:28.647Z,3.40
2022-08-09T22:36:58.007Z,3.85
2022-08-09T22:39:58.854Z,3.58
2022-08-09T22:42:22.210Z,3.15
2022-08-09T22:48:06.081Z,3.08
2022-08-09T22:48:18.325Z,3.35
2022-08-09T22:50:30.718Z,3.00
2022-08-09T22:52:59.268Z,3.30
2022-08-09T22:55:39.472Z,3.05
2022-08-09T22:58:20.358Z,3.20
2022-08-09T23:01:02.424Z,3.15
2022-08-09T23:04:04.375Z,2.70
2022-08-09T23:06:32.541Z,2.88
2022-08-09T23:09:06.650Z,3.17
2022-08-09T23:11:34.514Z,2.80
2022-08-09T23:14:03.523Z,2.75
2022-08-09T23:16:31.854Z,3.08
2022-08-09T23:18:59.943Z,3.00
2022-08-09T23:21:32.829Z,3.05
2022-08-09T23:24:06.030Z,2.58
2022-08-09T23:26:36.212Z,2.65
2022-08-09T23:29:05.625Z,2.38
2022-08-09T23:31:33.727Z,2.70
2022-08-09T23:34:03.893Z,2.75
2022-08-09T23:36:33.183Z,2.92
2022-08-09T23:39:01.395Z,2.60
2022-08-09T23:41:29.797Z,2.40
2022-08-09T23:43:59.390Z,2.50
2022-08-09T23:46:29.079Z,2.97
2022-08-09T23:48:57.707Z,2.45
2022-08-09T23:51:25.765Z,2.67
2022-08-09T23:54:02.343Z,2.70
2022-08-09T23:56:53.215Z,2.50
2022-08-09T23:59:23.737Z,2.33
